sensor_id;sensor_type;location;lat;lon;timestamp;pressure;altitude;pressure_sealevel;temperature;humidity
60489;BME280;46331;49.252;8.904;2023-04-23T00:00:38;99126.91;;;13.49;100.00
60489;BME280;46331;49.252;8.904;2023-04-23T00:01:20;99121.59;;;13.44;99.96
60489;BME280;46331;49.252;8.904;2023-04-23T00:02:05;99129.63;;;13.33;99.23
60489;BME280;46331;49.252;8.904;2023-04-23T00:02:50;99123.22;;;13.29;100.00
60489;BME280;46331;49.252;8.904;2023-04-23T00:03:32;99124.84;;;13.20;100.00
60489;BME280;46331;49.252;8.904;2023-04-23T00:04:14;99125.63;;;13.20;100.00
60489;BME280;46331;49.252;8.904;2023-04-23T00:05:01;99124.03;;;13.14;100.00
60489;BME280;46331;49.252;8.904;2023-04-23T00:05:44;99127.50;;;12.99;100.00
60489;BME280;46331;49.252;8.904;2023-04-23T00:06:25;99119.28;;;12.80;100.00
60489;BME280;46331;49.252;8.904;2023-04-23T00:07:06;99123.53;;;12.71;100.00
60489;BME280;46331;49.252;8.904;2023-04-23T00:07:46;99123.53;;;12.71;100.00
60489;BME280;46331;49.252;8.904;2023-04-23T00:08:28;99124.31;;;12.56;100.00
60489;BME280;46331;49.252;8.904;2023-04-23T00:09:08;99134.16;;;12.61;100.00
60489;BME280;46331;49.252;8.904;2023-04-23T00:09:51;99131.75;;;12.64;100.00
60489;BME280;46331;49.252;8.904;2023-04-23T00:10:32;99132.56;;;12.65;100.00
60489;BME280;46331;49.252;8.904;2023-04-23T00:11:13;99132.56;;;12.65;100.00
60489;BME280;46331;49.252;8.904;2023-04-23T00:11:53;99135.25;;;12.65;100.00
60489;BME280;46331;49.252;8.904;2023-04-23T00:12:34;99132.03;;;12.63;100.00
60489;BME280;46331;49.252;8.904;2023-04-23T00:13:15;99130.16;;;12.58;100.00
60489;BME280;46331;49.252;8.904;2023-04-23T00:13:55;99133.59;;;12.53;100.00
60489;BME280;46331;49.252;8.904;2023-04-23T00:14:36;99133.88;;;12.52;100.00
60489;BME280;46331;49.252;8.904;2023-04-23T00:15:17;99130.69;;;12.50;100.00
60489;BME280;46331;49.252;8.904;2023-04-23T00:16:00;99132.00;;;12.47;100.00
60489;BME280;46331;49.252;8.904;2023-04-23T00:16:40;99129.34;;;12.47;100.00
60489;BME280;46331;49.252;8.904;2023-04-23T00:17:21;99134.66;;;12.47;100.00
60489;BME280;46331;49.252;8.904;2023-04-23T00:18:01;99127.50;;;12.48;100.00
60489;BME280;46331;49.252;8.904;2023-04-23T00:18:42;99125.38;;;12.50;100.00
60489;BME280;46331;49.252;8.904;2023-04-23T00:19:23;99128.56;;;12.47;100.00
60489;BME280;46331;49.252;8.904;2023-04-23T00:20:04;99129.34;;;12.37;100.00
60489;BME280;46331;49.252;8.904;2023-04-23T00:20:45;99124.56;;;12.39;100.00
60489;BME280;46331;49.252;8.904;2023-04-23T00:21:26;99130.94;;;12.38;100.00
60489;BME280;46331;49.252;8.904;2023-04-23T00:22:07;99137.84;;;12.39;100.00
60489;BME280;46331;49.252;8.904;2023-04-23T00:22:47;99132.28;;;12.41;100.00
60489;BME280;46331;49.252;8.904;2023-04-23T00:23:28;99133.84;;;12.37;100.00
60489;BME280;46331;49.252;8.904;2023-04-23T00:24:08;99132.78;;;12.32;100.00
60489;BME280;46331;49.252;8.904;2023-04-23T00:24:49;99127.75;;;12.36;100.00
60489;BME280;46331;49.252;8.904;2023-04-23T00:25:29;99130.94;;;12.43;100.00
60489;BME280;46331;49.252;8.904;2023-04-23T00:26:10;99130.69;;;12.45;100.00
60489;BME280;46331;49.252;8.904;2023-04-23T00:26:50;99130.41;;;12.41;100.00
60489;BME280;46331;49.252;8.904;2023-04-23T00:27:32;99134.66;;;12.42;100.00
60489;BME280;46331;49.252;8.904;2023-04-23T00:28:12;99129.63;;;12.41;100.00
60489;BME280;46331;49.252;8.904;2023-04-23T00:28:55;99125.88;;;12.31;100.00
60489;BME280;46331;49.252;8.904;2023-04-23T00:29:35;99129.31;;;12.27;100.00
60489;BME280;46331;49.252;8.904;2023-04-23T00:30:16;99129.59;;;12.30;100.00
60489;BME280;46331;49.252;8.904;2023-04-23T00:30:57;99125.06;;;12.26;100.00
60489;BME280;46331;49.252;8.904;2023-04-23T00:31:38;99124.53;;;12.29;100.00
60489;BME280;46331;49.252;8.904;2023-04-23T00:32:19;99126.66;;;12.32;100.00
60489;BME280;46331;49.252;8.904;2023-04-23T00:33:00;99126.66;;;12.32;100.00
60489;BME280;46331;49.252;8.904;2023-04-23T00:33:40;99123.47;;;12.30;100.00
60489;BME280;46331;49.252;8.904;2023-04-23T00:34:21;99126.94;;;12.30;100.00
60489;BME280;46331;49.252;8.904;2023-04-23T00:35:01;99121.88;;;12.29;100.00
60489;BME280;46331;49.252;8.904;2023-04-23T00:35:43;99125.88;;;12.31;100.00
60489;BME280;46331;49.252;8.904;2023-04-23T00:36:24;99117.38;;;12.29;100.00
60489;BME280;46331;49.252;8.904;2023-04-23T00:37:05;99130.41;;;12.31;100.00
60489;BME280;46331;49.252;8.904;2023-04-23T00:37:47;99122.44;;;12.31;100.00
60489;BME280;46331;49.252;8.904;2023-04-23T00:38:27;99122.69;;;12.29;100.00
60489;BME280;46331;49.252;8.904;2023-04-23T00:39:08;99131.97;;;12.22;100.00
60489;BME280;46331;49.252;8.904;2023-04-23T00:39:50;99130.94;;;12.28;100.00
60489;BME280;46331;49.252;8.904;2023-04-23T00:40:31;99127.97;;;12.24;100.00
60489;BME280;46331;49.252;8.904;2023-04-23T00:41:11;99120.25;;;12.23;100.00
60489;BME280;46331;49.252;8.904;2023-04-23T00:41:52;99128.78;;;12.25;100.00
60489;BME280;46331;49.252;8.904;2023-04-23T00:42:35;99125.84;;;12.21;100.00
60489;BME280;46331;49.252;8.904;2023-04-23T00:43:16;99128.25;;;12.23;100.00
60489;BME280;46331;49.252;8.904;2023-04-23T00:43:59;99127.44;;;12.22;100.00
60489;BME280;46331;49.252;8.904;2023-04-23T00:44:40;99131.97;;;12.22;100.00
60489;BME280;46331;49.252;8.904;2023-04-23T00:45:24;99127.44;;;12.22;100.00
60489;BME280;46331;49.252;8.904;2023-04-23T00:46:05;99134.38;;;12.23;100.00
60489;BME280;46331;49.252;8.904;2023-04-23T00:46:46;99124.78;;;12.22;100.00
60489;BME280;46331;49.252;8.904;2023-04-23T00:47:28;99133.81;;;12.16;100.00
60489;BME280;46331;49.252;8.904;2023-04-23T00:48:09;99130.38;;;12.21;100.00
60489;BME280;46331;49.252;8.904;2023-04-23T00:48:51;99125.59;;;12.23;100.00
60489;BME280;46331;49.252;8.904;2023-04-23T00:49:33;99126.91;;;12.20;100.00
60489;BME280;46331;49.252;8.904;2023-04-23T00:50:14;99134.13;;;12.25;100.00
60489;BME280;46331;49.252;8.904;2023-04-23T00:50:59;99128.28;;;12.28;100.00
60489;BME280;46331;49.252;8.904;2023-04-23T00:51:40;99131.44;;;12.25;100.00
60489;BME280;46331;49.252;8.904;2023-04-23T00:52:21;99133.81;;;12.21;100.00
60489;BME280;46331;49.252;8.904;2023-04-23T00:53:01;99129.28;;;12.16;100.00
60489;BME280;46331;49.252;8.904;2023-04-23T00:53:42;99128.75;;;12.20;100.00
60489;BME280;46331;49.252;8.904;2023-04-23T00:54:22;99131.97;;;12.22;100.00
60489;BME280;46331;49.252;8.904;2023-04-23T00:55:03;99128.75;;;12.14;100.00
60489;BME280;46331;49.252;8.904;2023-04-23T00:55:44;99129.28;;;12.16;100.00
60489;BME280;46331;49.252;8.904;2023-04-23T00:56:26;99128.75;;;12.20;100.00
60489;BME280;46331;49.252;8.904;2023-04-23T00:57:07;99124.25;;;12.20;100.00
60489;BME280;46331;49.252;8.904;2023-04-23T00:57:48;99128.75;;;12.20;100.00
60489;BME280;46331;49.252;8.904;2023-04-23T00:58:28;99119.47;;;12.22;100.00
60489;BME280;46331;49.252;8.904;2023-04-23T00:59:09;99132.25;;;12.20;100.00
60489;BME280;46331;49.252;8.904;2023-04-23T00:59:50;99128.22;;;12.12;100.00
60489;BME280;46331;49.252;8.904;2023-04-23T01:00:33;99125.31;;;12.14;100.00
60489;BME280;46331;49.252;8.904;2023-04-23T01:01:15;99129.50;;;11.99;100.00
60489;BME280;46331;49.252;8.904;2023-04-23T01:01:58;99131.41;;;12.09;100.00
60489;BME280;46331;49.252;8.904;2023-04-23T01:02:40;99131.16;;;12.11;100.00
60489;BME280;46331;49.252;8.904;2023-04-23T01:03:23;99128.47;;;12.06;100.00
60489;BME280;46331;49.252;8.904;2023-04-23T01:04:05;99126.63;;;12.11;100.00
60489;BME280;46331;49.252;8.904;2023-04-23T01:04:47;99130.31;;;12.05;100.00
60489;BME280;46331;49.252;8.904;2023-04-23T01:05:31;99127.16;;;12.08;100.00
60489;BME280;46331;49.252;8.904;2023-04-23T01:06:11;99125.00;;;12.10;100.00
60489;BME280;46331;49.252;8.904;2023-04-23T01:06:52;99130.38;;;12.15;100.00
60489;BME280;46331;49.252;8.904;2023-04-23T01:07:34;99127.44;;;12.17;100.00
60489;BME280;46331;49.252;8.904;2023-04-23T01:08:15;99122.91;;;12.18;100.00
60489;BME280;46331;49.252;8.904;2023-04-23T01:08:56;99134.59;;;12.16;100.00
60489;BME280;46331;49.252;8.904;2023-04-23T01:09:37;99126.09;;;12.09;100.00
60489;BME280;46331;49.252;8.904;2023-04-23T01:10:18;99133.00;;;12.05;100.00
60489;BME280;46331;49.252;8.904;2023-04-23T01:10:59;99133.53;;;12.12;100.00
60489;BME280;46331;49.252;8.904;2023-04-23T01:11:42;99126.09;;;12.14;100.00
60489;BME280;46331;49.252;8.904;2023-04-23T01:12:23;99131.69;;;12.13;100.00
60489;BME280;46331;49.252;8.904;2023-04-23T01:13:03;99134.34;;;12.13;100.00
60489;BME280;46331;49.252;8.904;2023-04-23T01:13:44;99132.22;;;12.15;100.00
60489;BME280;46331;49.252;8.904;2023-04-23T01:14:25;99135.41;;;12.17;100.00
60489;BME280;46331;49.252;8.904;2023-04-23T01:15:06;99130.06;;;12.12;100.00
60489;BME280;46331;49.252;8.904;2023-04-23T01:15:47;99130.38;;;12.21;100.00
60489;BME280;46331;49.252;8.904;2023-04-23T01:16:27;99134.06;;;12.20;100.00
60489;BME280;46331;49.252;8.904;2023-04-23T01:17:08;99128.75;;;12.09;100.00
60489;BME280;46331;49.252;8.904;2023-04-23T01:17:49;99134.13;;;12.25;100.00
60489;BME280;46331;49.252;8.904;2023-04-23T01:18:29;99128.78;;;12.25;100.00
60489;BME280;46331;49.252;8.904;2023-04-23T01:19:10;99133.31;;;12.29;100.00
60489;BME280;46331;49.252;8.904;2023-04-23T01:19:51;99128.28;;;12.28;100.00
60489;BME280;46331;49.252;8.904;2023-04-23T01:20:31;99133.03;;;12.21;100.00
60489;BME280;46331;49.252;8.904;2023-04-23T01:21:15;99140.47;;;12.19;100.00
60489;BME280;46331;49.252;8.904;2023-04-23T01:21:57;99136.47;;;12.21;100.00
60489;BME280;46331;49.252;8.904;2023-04-23T01:22:41;99138.03;;;12.12;100.00
60489;BME280;46331;49.252;8.904;2023-04-23T01:23:21;99135.94;;;12.14;100.00
60489;BME280;46331;49.252;8.904;2023-04-23T01:24:03;99139.34;;;12.04;100.00
60489;BME280;46331;49.252;8.904;2023-04-23T01:24:44;99141.47;;;12.07;100.00
60489;BME280;46331;49.252;8.904;2023-04-23T01:25:25;99131.69;;;12.08;100.00
60489;BME280;46331;49.252;8.904;2023-04-23T01:26:05;99146.53;;;12.09;100.00
60489;BME280;46331;49.252;8.904;2023-04-23T01:26:46;99139.91;;;12.06;100.00
60489;BME280;46331;49.252;8.904;2023-04-23T01:27:27;99143.09;;;12.03;100.00
60489;BME280;46331;49.252;8.904;2023-04-23T01:28:07;99136.69;;;12.04;100.00
60489;BME280;46331;49.252;8.904;2023-04-23T01:28:49;99139.09;;;12.06;100.00
60489;BME280;46331;49.252;8.904;2023-04-23T01:29:30;99143.06;;;11.98;100.00
60489;BME280;46331;49.252;8.904;2023-04-23T01:30:12;99145.44;;;11.94;100.00
60489;BME280;46331;49.252;8.904;2023-04-23T01:30:53;99144.66;;;11.99;100.00
60489;BME280;46331;49.252;8.904;2023-04-23T01:31:33;99145.97;;;11.96;100.00
60489;BME280;46331;49.252;8.904;2023-04-23T01:32:15;99141.47;;;11.97;100.00
60489;BME280;46331;49.252;8.904;2023-04-23T01:32:56;99137.72;;;11.98;100.00
60489;BME280;46331;49.252;8.904;2023-04-23T01:33:37;99140.91;;;11.95;100.00
60489;BME280;46331;49.252;8.904;2023-04-23T01:34:18;99138.25;;;11.95;100.00
60489;BME280;46331;49.252;8.904;2023-04-23T01:35:00;99136.69;;;11.99;100.00
60489;BME280;46331;49.252;8.904;2023-04-23T01:35:42;99140.09;;;11.89;100.00
60489;BME280;46331;49.252;8.904;2023-04-23T01:36:24;99143.56;;;11.95;100.00
60489;BME280;46331;49.252;8.904;2023-04-23T01:37:08;99139.25;;;11.84;100.00
60489;BME280;46331;49.252;8.904;2023-04-23T01:37:49;99143.22;;;11.81;100.00
60489;BME280;46331;49.252;8.904;2023-04-23T01:38:35;99140.31;;;11.82;100.00
60489;BME280;46331;49.252;8.904;2023-04-23T01:39:17;99138.97;;;11.80;100.00
60489;BME280;46331;49.252;8.904;2023-04-23T01:39:57;99140.31;;;11.82;100.00
60489;BME280;46331;49.252;8.904;2023-04-23T01:40:38;99138.47;;;11.88;100.00
60489;BME280;46331;49.252;8.904;2023-04-23T01:41:19;99143.53;;;11.90;100.00
60489;BME280;46331;49.252;8.904;2023-04-23T01:42:00;99142.47;;;11.91;100.00
60489;BME280;46331;49.252;8.904;2023-04-23T01:42:40;99139.28;;;11.89;100.00
60489;BME280;46331;49.252;8.904;2023-04-23T01:43:21;99138.25;;;11.95;100.00
60489;BME280;46331;49.252;8.904;2023-04-23T01:44:02;99139.88;;;12.01;100.00
60489;BME280;46331;49.252;8.904;2023-04-23T01:44:43;99137.16;;;11.91;100.00
60489;BME280;46331;49.252;8.904;2023-04-23T01:45:24;99148.09;;;11.99;100.00
60489;BME280;46331;49.252;8.904;2023-04-23T01:46:05;99142.56;;;12.06;100.00
60489;BME280;46331;49.252;8.904;2023-04-23T01:46:45;99149.19;;;11.98;100.00
60489;BME280;46331;49.252;8.904;2023-04-23T01:47:27;99130.28;;;11.95;100.00
60489;BME280;46331;49.252;8.904;2023-04-23T01:48:08;99136.94;;;12.03;100.00
60489;BME280;46331;49.252;8.904;2023-04-23T01:48:49;99143.88;;;11.98;100.00
60489;BME280;46331;49.252;8.904;2023-04-23T01:49:30;99139.09;;;12.06;100.00
60489;BME280;46331;49.252;8.904;2023-04-23T01:50:11;99142.03;;;12.09;100.00
60489;BME280;46331;49.252;8.904;2023-04-23T01:50:52;99142.56;;;12.11;100.00
60489;BME280;46331;49.252;8.904;2023-04-23T01:51:33;99140.69;;;12.12;100.00
60489;BME280;46331;49.252;8.904;2023-04-23T01:52:14;99146.28;;;12.10;100.00
60489;BME280;46331;49.252;8.904;2023-04-23T01:52:55;99146.53;;;12.09;100.00
60489;BME280;46331;49.252;8.904;2023-04-23T01:53:36;99135.38;;;12.07;100.00
60489;BME280;46331;49.252;8.904;2023-04-23T01:54:17;99141.53;;;12.12;100.00
60489;BME280;46331;49.252;8.904;2023-04-23T01:54:57;99142.56;;;12.11;100.00
60489;BME280;46331;49.252;8.904;2023-04-23T01:55:38;99146.06;;;12.17;100.00
60489;BME280;46331;49.252;8.904;2023-04-23T01:56:22;99146.28;;;12.10;100.00
60489;BME280;46331;49.252;8.904;2023-04-23T01:57:04;99144.72;;;12.14;100.00
60489;BME280;46331;49.252;8.904;2023-04-23T01:57:46;99146.59;;;12.24;100.00
60489;BME280;46331;49.252;8.904;2023-04-23T01:58:27;99146.63;;;12.29;100.00
60489;BME280;46331;49.252;8.904;2023-04-23T01:59:07;99144.22;;;12.33;100.00
60489;BME280;46331;49.252;8.904;2023-04-23T01:59:49;99150.84;;;12.30;100.00
60489;BME280;46331;49.252;8.904;2023-04-23T02:00:29;99154.03;;;12.22;100.00
60489;BME280;46331;49.252;8.904;2023-04-23T02:01:10;99147.94;;;12.32;100.00
60489;BME280;46331;49.252;8.904;2023-04-23T02:01:51;99151.41;;;12.32;100.00
60489;BME280;46331;49.252;8.904;2023-04-23T02:02:32;99160.19;;;12.33;100.00
60489;BME280;46331;49.252;8.904;2023-04-23T02:03:13;99152.44;;;12.21;100.00
60489;BME280;46331;49.252;8.904;2023-04-23T02:03:53;99156.16;;;12.25;100.00
60489;BME280;46331;49.252;8.904;2023-04-23T02:04:34;99155.59;;;12.18;100.00
60489;BME280;46331;49.252;8.904;2023-04-23T02:05:17;99150.59;;;12.27;100.00
60489;BME280;46331;49.252;8.904;2023-04-23T02:05:59;99154.56;;;12.24;100.00
60489;BME280;46331;49.252;8.904;2023-04-23T02:06:42;99151.91;;;12.19;100.00
60489;BME280;46331;49.252;8.904;2023-04-23T02:07:23;99150.56;;;12.16;100.00
60489;BME280;46331;49.252;8.904;2023-04-23T02:08:03;99156.38;;;12.13;100.00
60489;BME280;46331;49.252;8.904;2023-04-23T02:08:44;99152.16;;;12.18;100.00
60489;BME280;46331;49.252;8.904;2023-04-23T02:09:25;99157.78;;;12.31;100.00
60489;BME280;46331;49.252;8.904;2023-04-23T02:10:06;99154.84;;;12.33;100.00
60489;BME280;46331;49.252;8.904;2023-04-23T02:10:47;99165.19;;;12.24;100.00
60489;BME280;46331;49.252;8.904;2023-04-23T02:11:27;99157.75;;;12.16;100.00
60489;BME280;46331;49.252;8.904;2023-04-23T02:12:08;99153.47;;;12.15;100.00
60489;BME280;46331;49.252;8.904;2023-04-23T02:12:48;99161.22;;;12.27;100.00
60489;BME280;46331;49.252;8.904;2023-04-23T02:13:29;99160.13;;;12.23;100.00
60489;BME280;46331;49.252;8.904;2023-04-23T02:14:10;99163.34;;;12.25;100.00
60489;BME280;46331;49.252;8.904;2023-04-23T02:14:51;99159.59;;;12.15;100.00
60489;BME280;46331;49.252;8.904;2023-04-23T02:15:32;99166.75;;;12.15;100.00
60489;BME280;46331;49.252;8.904;2023-04-23T02:16:14;99166.81;;;12.20;100.00
60489;BME280;46331;49.252;8.904;2023-04-23T02:16:55;99159.63;;;12.26;100.00
60489;BME280;46331;49.252;8.904;2023-04-23T02:17:37;99163.09;;;12.31;100.00
60489;BME280;46331;49.252;8.904;2023-04-23T02:18:19;99162.31;;;12.31;100.00
60489;BME280;46331;49.252;8.904;2023-04-23T02:18:59;99164.94;;;12.26;100.00
60489;BME280;46331;49.252;8.904;2023-04-23T02:19:41;99165.50;;;12.28;100.00
60489;BME280;46331;49.252;8.904;2023-04-23T02:20:21;99160.44;;;12.26;100.00
60489;BME280;46331;49.252;8.904;2023-04-23T02:21:02;99169.50;;;12.36;100.00
60489;BME280;46331;49.252;8.904;2023-04-23T02:21:43;99170.56;;;12.34;100.00
60489;BME280;46331;49.252;8.904;2023-04-23T02:22:24;99168.72;;;12.40;100.00
60489;BME280;46331;49.252;8.904;2023-04-23T02:23:07;99168.94;;;12.33;100.00
60489;BME280;46331;49.252;8.904;2023-04-23T02:23:47;99167.88;;;12.40;100.00
60489;BME280;46331;49.252;8.904;2023-04-23T02:24:28;99163.66;;;12.39;100.00
60489;BME280;46331;49.252;8.904;2023-04-23T02:25:09;99164.97;;;12.36;100.00
60489;BME280;46331;49.252;8.904;2023-04-23T02:25:49;99166.03;;;12.30;100.00
60489;BME280;46331;49.252;8.904;2023-04-23T02:26:30;99166.00;;;12.25;100.00
60489;BME280;46331;49.252;8.904;2023-04-23T02:27:10;99167.09;;;12.34;100.00
60489;BME280;46331;49.252;8.904;2023-04-23T02:27:51;99168.13;;;12.23;100.00
60489;BME280;46331;49.252;8.904;2023-04-23T02:28:31;99165.44;;;12.18;100.00
60489;BME280;46331;49.252;8.904;2023-04-23T02:29:12;99165.75;;;12.26;100.00
60489;BME280;46331;49.252;8.904;2023-04-23T02:29:52;99166.00;;;12.25;100.00
60489;BME280;46331;49.252;8.904;2023-04-23T02:30:34;99158.03;;;12.30;100.00
60489;BME280;46331;49.252;8.904;2023-04-23T02:31:14;99155.38;;;12.30;100.00
60489;BME280;46331;49.252;8.904;2023-04-23T02:31:55;99160.44;;;12.37;100.00
60489;BME280;46331;49.252;8.904;2023-04-23T02:32:36;99163.66;;;12.39;100.00
60489;BME280;46331;49.252;8.904;2023-04-23T02:33:17;99153.28;;;12.42;100.00
60489;BME280;46331;49.252;8.904;2023-04-23T02:33:59;99161.78;;;12.39;100.00
60489;BME280;46331;49.252;8.904;2023-04-23T02:34:40;99159.34;;;12.27;100.00
60489;BME280;46331;49.252;8.904;2023-04-23T02:35:21;99158.59;;;12.37;100.00
60489;BME280;46331;49.252;8.904;2023-04-23T02:36:02;99160.72;;;12.45;100.00
60489;BME280;46331;49.252;8.904;2023-04-23T02:36:43;99159.13;;;12.39;100.00
60489;BME280;46331;49.252;8.904;2023-04-23T02:37:23;99158.31;;;12.23;100.00
60489;BME280;46331;49.252;8.904;2023-04-23T02:38:04;99162.31;;;12.36;100.00
60489;BME280;46331;49.252;8.904;2023-04-23T02:38:44;99154.59;;;12.40;100.00
60489;BME280;46331;49.252;8.904;2023-04-23T02:39:27;99150.63;;;12.37;100.00
60489;BME280;46331;49.252;8.904;2023-04-23T02:40:08;99161.25;;;12.42;100.00
60489;BME280;46331;49.252;8.904;2023-04-23T02:40:49;99150.88;;;12.46;100.00
60489;BME280;46331;49.252;8.904;2023-04-23T02:41:30;99151.16;;;12.39;100.00
60489;BME280;46331;49.252;8.904;2023-04-23T02:42:10;99149.28;;;12.40;100.00
60489;BME280;46331;49.252;8.904;2023-04-23T02:42:51;99154.06;;;12.43;100.00
60489;BME280;46331;49.252;8.904;2023-04-23T02:43:31;99154.38;;;12.46;100.00
60489;BME280;46331;49.252;8.904;2023-04-23T02:44:13;99149.53;;;12.38;100.00
60489;BME280;46331;49.252;8.904;2023-04-23T02:44:53;99155.13;;;12.37;100.00
60489;BME280;46331;49.252;8.904;2023-04-23T02:45:34;99150.63;;;12.37;100.00
60489;BME280;46331;49.252;8.904;2023-04-23T02:46:14;99153.81;;;12.39;100.00
60489;BME280;46331;49.252;8.904;2023-04-23T02:46:55;99148.97;;;12.26;100.00
60489;BME280;46331;49.252;8.904;2023-04-23T02:47:36;99143.69;;;12.36;100.00
60489;BME280;46331;49.252;8.904;2023-04-23T02:48:17;99151.16;;;12.39;100.00
60489;BME280;46331;49.252;8.904;2023-04-23T02:48:57;99154.34;;;12.36;100.00
60489;BME280;46331;49.252;8.904;2023-04-23T02:49:38;99158.03;;;12.35;100.00
60489;BME280;46331;49.252;8.904;2023-04-23T02:50:19;99155.66;;;12.33;100.00
60489;BME280;46331;49.252;8.904;2023-04-23T02:50:59;99158.06;;;12.40;100.00
60489;BME280;46331;49.252;8.904;2023-04-23T02:51:42;99144.75;;;12.30;100.00
60489;BME280;46331;49.252;8.904;2023-04-23T02:52:22;99147.69;;;12.39;100.00
60489;BME280;46331;49.252;8.904;2023-04-23T02:53:03;99152.72;;;12.35;100.00
60489;BME280;46331;49.252;8.904;2023-04-23T02:53:44;99152.47;;;12.31;100.00
60489;BME280;46331;49.252;8.904;2023-04-23T02:54:25;99145.53;;;12.30;100.00
60489;BME280;46331;49.252;8.904;2023-04-23T02:55:06;99146.09;;;12.32;100.00
60489;BME280;46331;49.252;8.904;2023-04-23T02:55:47;99154.84;;;12.38;100.00
60489;BME280;46331;49.252;8.904;2023-04-23T02:56:28;99149.03;;;12.46;100.00
60489;BME280;46331;49.252;8.904;2023-04-23T02:57:08;99152.50;;;12.42;100.00
60489;BME280;46331;49.252;8.904;2023-04-23T02:57:50;99152.75;;;12.45;100.00
60489;BME280;46331;49.252;8.904;2023-04-23T02:58:31;99151.16;;;12.39;100.00
60489;BME280;46331;49.252;8.904;2023-04-23T02:59:14;99147.44;;;12.50;100.00
60489;BME280;46331;49.252;8.904;2023-04-23T02:59:54;99155.94;;;12.47;100.00
60489;BME280;46331;49.252;8.904;2023-04-23T03:00:42;99154.38;;;12.51;100.00
60489;BME280;46331;49.252;8.904;2023-04-23T03:01:23;99152.78;;;12.56;100.00
60489;BME280;46331;49.252;8.904;2023-04-23T03:02:04;99152.22;;;12.53;100.00
60489;BME280;46331;49.252;8.904;2023-04-23T03:02:44;99151.44;;;12.48;100.00
60489;BME280;46331;49.252;8.904;2023-04-23T03:03:26;99152.22;;;12.48;100.00
60489;BME280;46331;49.252;8.904;2023-04-23T03:04:11;99153.28;;;12.42;100.00
60489;BME280;46331;49.252;8.904;2023-04-23T03:04:51;99149.03;;;12.46;100.00
60489;BME280;46331;49.252;8.904;2023-04-23T03:05:32;99155.41;;;12.45;100.00
60489;BME280;46331;49.252;8.904;2023-04-23T03:06:13;99153.84;;;12.49;100.00
60489;BME280;46331;49.252;8.904;2023-04-23T03:06:53;99147.44;;;12.50;100.00
60489;BME280;46331;49.252;8.904;2023-04-23T03:07:34;99156.75;;;12.53;100.00
60489;BME280;46331;49.252;8.904;2023-04-23T03:08:15;99162.34;;;12.51;100.00
60489;BME280;46331;49.252;8.904;2023-04-23T03:08:55;99154.06;;;12.43;100.00
60489;BME280;46331;49.252;8.904;2023-04-23T03:09:36;99153.84;;;12.49;100.00
60489;BME280;46331;49.252;8.904;2023-04-23T03:10:17;99154.88;;;12.48;100.00
60489;BME280;46331;49.252;8.904;2023-04-23T03:10:57;99154.88;;;12.43;100.00
60489;BME280;46331;49.252;8.904;2023-04-23T03:11:38;99157.03;;;12.51;100.00
60489;BME280;46331;49.252;8.904;2023-04-23T03:12:18;99157.28;;;12.50;100.00
60489;BME280;46331;49.252;8.904;2023-04-23T03:12:59;99153.03;;;12.39;100.00
60489;BME280;46331;49.252;8.904;2023-04-23T03:13:40;99153.03;;;12.39;100.00
60489;BME280;46331;49.252;8.904;2023-04-23T03:14:21;99160.22;;;12.48;100.00
60489;BME280;46331;49.252;8.904;2023-04-23T03:15:02;99155.41;;;12.45;100.00
60489;BME280;46331;49.252;8.904;2023-04-23T03:15:47;99154.09;;;12.48;100.00
60489;BME280;46331;49.252;8.904;2023-04-23T03:16:29;99154.38;;;12.46;100.00
60489;BME280;46331;49.252;8.904;2023-04-23T03:17:10;99158.03;;;12.35;100.00
60489;BME280;46331;49.252;8.904;2023-04-23T03:17:51;99147.69;;;12.44;100.00
60489;BME280;46331;49.252;8.904;2023-04-23T03:18:33;99153.28;;;12.42;100.00
60489;BME280;46331;49.252;8.904;2023-04-23T03:19:15;99153.81;;;12.44;100.00
60489;BME280;46331;49.252;8.904;2023-04-23T03:19:55;99155.16;;;12.47;100.00
60489;BME280;46331;49.252;8.904;2023-04-23T03:20:38;99150.88;;;12.46;100.00
60489;BME280;46331;49.252;8.904;2023-04-23T03:21:19;99152.50;;;12.42;100.00
60489;BME280;46331;49.252;8.904;2023-04-23T03:21:59;99151.97;;;12.50;100.00
60489;BME280;46331;49.252;8.904;2023-04-23T03:22:43;99158.09;;;12.56;100.00
60489;BME280;46331;49.252;8.904;2023-04-23T03:23:25;99154.88;;;12.53;100.00
60489;BME280;46331;49.252;8.904;2023-04-23T03:24:05;99157.03;;;12.51;100.00
60489;BME280;46331;49.252;8.904;2023-04-23T03:24:46;99150.06;;;12.30;100.00
60489;BME280;46331;49.252;8.904;2023-04-23T03:25:28;99144.75;;;12.35;100.00
60489;BME280;46331;49.252;8.904;2023-04-23T03:26:08;99148.22;;;12.36;100.00
60489;BME280;46331;49.252;8.904;2023-04-23T03:26:49;99154.06;;;12.32;100.00
60489;BME280;46331;49.252;8.904;2023-04-23T03:27:29;99147.16;;;12.37;100.00
60489;BME280;46331;49.252;8.904;2023-04-23T03:28:10;99151.13;;;12.24;100.00
60489;BME280;46331;49.252;8.904;2023-04-23T03:28:51;99158.25;;;12.18;100.00
60489;BME280;46331;49.252;8.904;2023-04-23T03:29:32;99152.16;;;12.23;100.00
60489;BME280;46331;49.252;8.904;2023-04-23T03:30:14;99150.03;;;12.20;100.00
60489;BME280;46331;49.252;8.904;2023-04-23T03:30:55;99152.69;;;12.14;100.00
60489;BME280;46331;49.252;8.904;2023-04-23T03:31:35;99156.94;;;12.15;100.00
60489;BME280;46331;49.252;8.904;2023-04-23T03:32:16;99152.41;;;12.11;100.00
60489;BME280;46331;49.252;8.904;2023-04-23T03:32:58;99155.81;;;12.01;100.00
60489;BME280;46331;49.252;8.904;2023-04-23T03:33:39;99154.69;;;11.92;100.00
60489;BME280;46331;49.252;8.904;2023-04-23T03:34:19;99153.69;;;11.98;100.00
60489;BME280;46331;49.252;8.904;2023-04-23T03:35:00;99151.28;;;11.96;100.00
60489;BME280;46331;49.252;8.904;2023-04-23T03:35:41;99146.28;;;12.05;100.00